sensor_id;sensor_type;location;lat;lon;timestamp;P1;durP1;ratioP1;P2;durP2;ratioP2
18170;SDS011;9210;48.358;10.902;2022-07-29T00:00:50;198.07;;;180.68;;
18170;SDS011;9210;48.358;10.902;2022-07-29T00:03:19;139.38;;;127.95;;
18170;SDS011;9210;48.358;10.902;2022-07-29T00:05:48;168.82;;;154.23;;
18170;SDS011;9210;48.358;10.902;2022-07-29T00:08:18;109.45;;;101.60;;
18170;SDS011;9210;48.358;10.902;2022-07-29T00:10:48;111.05;;;102.47;;
18170;SDS011;9210;48.358;10.902;2022-07-29T00:13:17;189.70;;;172.63;;
18170;SDS011;9210;48.358;10.902;2022-07-29T00:15:58;190.77;;;174.52;;
18170;SDS011;9210;48.358;10.902;2022-07-29T00:18:30;100.07;;;92.75;;
18170;SDS011;9210;48.358;10.902;2022-07-29T00:20:59;119.32;;;110.10;;
18170;SDS011;9210;48.358;10.902;2022-07-29T00:23:27;164.88;;;150.88;;
18170;SDS011;9210;48.358;10.902;2022-07-29T00:26:03;105.03;;;97.07;;
18170;SDS011;9210;48.358;10.902;2022-07-29T00:28:31;166.50;;;152.35;;
18170;SDS011;9210;48.358;10.902;2022-07-29T00:31:00;131.68;;;121.65;;
18170;SDS011;9210;48.358;10.902;2022-07-29T00:33:28;109.03;;;100.50;;
18170;SDS011;9210;48.358;10.902;2022-07-29T00:35:57;137.00;;;126.00;;
18170;SDS011;9210;48.358;10.902;2022-07-29T00:38:25;131.43;;;120.15;;
18170;SDS011;9210;48.358;10.902;2022-07-29T00:40:53;122.45;;;112.50;;
18170;SDS011;9210;48.358;10.902;2022-07-29T00:43:23;128.48;;;117.85;;
18170;SDS011;9210;48.358;10.902;2022-07-29T00:45:51;103.38;;;95.10;;
18170;SDS011;9210;48.358;10.902;2022-07-29T00:48:20;187.75;;;171.02;;
18170;SDS011;9210;48.358;10.902;2022-07-29T00:50:49;148.77;;;135.48;;
18170;SDS011;9210;48.358;10.902;2022-07-29T00:53:17;152.37;;;139.17;;
18170;SDS011;9210;48.358;10.902;2022-07-29T00:55:47;161.00;;;147.23;;
18170;SDS011;9210;48.358;10.902;2022-07-29T00:58:17;130.48;;;120.47;;
18170;SDS011;9210;48.358;10.902;2022-07-29T01:00:50;112.60;;;103.68;;
18170;SDS011;9210;48.358;10.902;2022-07-29T01:03:18;164.85;;;150.75;;
18170;SDS011;9210;48.358;10.902;2022-07-29T01:05:47;123.78;;;113.90;;
18170;SDS011;9210;48.358;10.902;2022-07-29T01:08:17;145.48;;;133.60;;
18170;SDS011;9210;48.358;10.902;2022-07-29T01:10:46;114.05;;;105.05;;
18170;SDS011;9210;48.358;10.902;2022-07-29T01:13:15;159.75;;;146.38;;
18170;SDS011;9210;48.358;10.902;2022-07-29T01:15:46;142.82;;;131.95;;
18170;SDS011;9210;48.358;10.902;2022-07-29T01:18:18;152.63;;;140.25;;
18170;SDS011;9210;48.358;10.902;2022-07-29T01:20:59;180.55;;;165.65;;
18170;SDS011;9210;48.358;10.902;2022-07-29T01:23:40;179.65;;;164.68;;
18170;SDS011;9210;48.358;10.902;2022-07-29T01:26:28;112.10;;;103.13;;
18170;SDS011;9210;48.358;10.902;2022-07-29T01:29:05;185.93;;;169.75;;
18170;SDS011;9210;48.358;10.902;2022-07-29T01:31:40;119.07;;;109.75;;
18170;SDS011;9210;48.358;10.902;2022-07-29T01:34:27;197.40;;;180.38;;
18170;SDS011;9210;48.358;10.902;2022-07-29T01:37:01;198.93;;;181.30;;
18170;SDS011;9210;48.358;10.902;2022-07-29T01:39:33;139.18;;;127.38;;
18170;SDS011;9210;48.358;10.902;2022-07-29T01:42:06;106.22;;;97.93;;
18170;SDS011;9210;48.358;10.902;2022-07-29T01:44:39;139.48;;;128.18;;
18170;SDS011;9210;48.358;10.902;2022-07-29T01:47:10;100.25;;;92.78;;
18170;SDS011;9210;48.358;10.902;2022-07-29T01:49:41;111.22;;;102.65;;
18170;SDS011;9210;48.358;10.902;2022-07-29T01:52:13;104.65;;;96.15;;
18170;SDS011;9210;48.358;10.902;2022-07-29T01:54:45;141.73;;;130.32;;
18170;SDS011;9210;48.358;10.902;2022-07-29T01:57:16;113.90;;;103.53;;
18170;SDS011;9210;48.358;10.902;2022-07-29T01:59:47;172.23;;;157.98;;
18170;SDS011;9210;48.358;10.902;2022-07-29T02:02:16;213.73;;;195.00;;
18170;SDS011;9210;48.358;10.902;2022-07-29T02:04:46;138.83;;;128.03;;
18170;SDS011;9210;48.358;10.902;2022-07-29T02:07:18;226.02;;;204.50;;
18170;SDS011;9210;48.358;10.902;2022-07-29T02:09:47;237.23;;;214.57;;
18170;SDS011;9210;48.358;10.902;2022-07-29T02:12:17;188.68;;;171.27;;
18170;SDS011;9210;48.358;10.902;2022-07-29T02:14:49;106.00;;;97.40;;
18170;SDS011;9210;48.358;10.902;2022-07-29T02:17:21;126.57;;;116.13;;
18170;SDS011;9210;48.358;10.902;2022-07-29T02:19:50;146.10;;;134.10;;
18170;SDS011;9210;48.358;10.902;2022-07-29T02:22:19;86.15;;;78.97;;
18170;SDS011;9210;48.358;10.902;2022-07-29T02:24:49;161.52;;;148.25;;
18170;SDS011;9210;48.358;10.902;2022-07-29T02:27:18;147.63;;;135.80;;
18170;SDS011;9210;48.358;10.902;2022-07-29T02:29:49;110.33;;;101.77;;
18170;SDS011;9210;48.358;10.902;2022-07-29T02:32:18;100.97;;;92.13;;
18170;SDS011;9210;48.358;10.902;2022-07-29T02:34:47;117.85;;;109.07;;
18170;SDS011;9210;48.358;10.902;2022-07-29T02:37:17;154.90;;;142.40;;
18170;SDS011;9210;48.358;10.902;2022-07-29T02:39:46;104.68;;;96.22;;
18170;SDS011;9210;48.358;10.902;2022-07-29T02:42:15;83.20;;;76.63;;
18170;SDS011;9210;48.358;10.902;2022-07-29T02:44:44;70.78;;;65.38;;
18170;SDS011;9210;48.358;10.902;2022-07-29T02:47:15;139.95;;;127.90;;
18170;SDS011;9210;48.358;10.902;2022-07-29T02:49:47;74.20;;;68.00;;
18170;SDS011;9210;48.358;10.902;2022-07-29T02:52:18;58.15;;;53.90;;
18170;SDS011;9210;48.358;10.902;2022-07-29T02:54:51;80.17;;;74.10;;
18170;SDS011;9210;48.358;10.902;2022-07-29T02:57:22;87.57;;;81.03;;
18170;SDS011;9210;48.358;10.902;2022-07-29T02:59:56;122.22;;;112.85;;
18170;SDS011;9210;48.358;10.902;2022-07-29T03:02:27;112.83;;;104.07;;
18170;SDS011;9210;48.358;10.902;2022-07-29T03:04:57;75.43;;;69.77;;
18170;SDS011;9210;48.358;10.902;2022-07-29T03:07:26;91.47;;;84.73;;
18170;SDS011;9210;48.358;10.902;2022-07-29T03:09:55;80.07;;;74.05;;
18170;SDS011;9210;48.358;10.902;2022-07-29T03:12:23;97.50;;;89.53;;
18170;SDS011;9210;48.358;10.902;2022-07-29T03:14:53;65.63;;;60.47;;
18170;SDS011;9210;48.358;10.902;2022-07-29T03:17:22;67.32;;;62.47;;
18170;SDS011;9210;48.358;10.902;2022-07-29T03:19:52;52.33;;;48.50;;
18170;SDS011;9210;48.358;10.902;2022-07-29T03:22:21;60.47;;;55.83;;
18170;SDS011;9210;48.358;10.902;2022-07-29T03:24:50;58.35;;;53.58;;
18170;SDS011;9210;48.358;10.902;2022-07-29T03:27:18;61.80;;;56.67;;
18170;SDS011;9210;48.358;10.902;2022-07-29T03:29:46;67.70;;;62.63;;
18170;SDS011;9210;48.358;10.902;2022-07-29T03:32:16;48.40;;;45.05;;
18170;SDS011;9210;48.358;10.902;2022-07-29T03:34:50;47.58;;;44.05;;
18170;SDS011;9210;48.358;10.902;2022-07-29T03:37:20;76.57;;;70.53;;
18170;SDS011;9210;48.358;10.902;2022-07-29T03:39:48;65.40;;;60.13;;
18170;SDS011;9210;48.358;10.902;2022-07-29T03:42:18;106.03;;;98.37;;
18170;SDS011;9210;48.358;10.902;2022-07-29T03:44:47;58.50;;;54.13;;
18170;SDS011;9210;48.358;10.902;2022-07-29T03:47:17;61.63;;;57.23;;
18170;SDS011;9210;48.358;10.902;2022-07-29T03:50:08;66.27;;;61.20;;
18170;SDS011;9210;48.358;10.902;2022-07-29T03:52:45;83.53;;;76.97;;
18170;SDS011;9210;48.358;10.902;2022-07-29T03:55:14;67.53;;;62.73;;
18170;SDS011;9210;48.358;10.902;2022-07-29T03:57:43;98.73;;;90.67;;
18170;SDS011;9210;48.358;10.902;2022-07-29T04:00:12;57.70;;;53.77;;
18170;SDS011;9210;48.358;10.902;2022-07-29T04:02:43;55.33;;;51.57;;
18170;SDS011;9210;48.358;10.902;2022-07-29T04:05:15;50.80;;;47.13;;
18170;SDS011;9210;48.358;10.902;2022-07-29T04:07:46;115.03;;;106.17;;
18170;SDS011;9210;48.358;10.902;2022-07-29T04:10:15;94.93;;;87.63;;
18170;SDS011;9210;48.358;10.902;2022-07-29T04:12:57;50.83;;;47.17;;
18170;SDS011;9210;48.358;10.902;2022-07-29T04:15:26;59.87;;;55.60;;
18170;SDS011;9210;48.358;10.902;2022-07-29T04:17:56;52.57;;;48.53;;
18170;SDS011;9210;48.358;10.902;2022-07-29T04:20:25;45.53;;;42.40;;
18170;SDS011;9210;48.358;10.902;2022-07-29T04:22:55;73.25;;;68.03;;
18170;SDS011;9210;48.358;10.902;2022-07-29T04:25:24;53.30;;;49.27;;
18170;SDS011;9210;48.358;10.902;2022-07-29T04:27:52;61.07;;;56.53;;
18170;SDS011;9210;48.358;10.902;2022-07-29T04:30:30;88.73;;;71.03;;
18170;SDS011;9210;48.358;10.902;2022-07-29T04:32:59;49.00;;;45.53;;
18170;SDS011;9210;48.358;10.902;2022-07-29T04:35:28;61.07;;;56.17;;
18170;SDS011;9210;48.358;10.902;2022-07-29T04:38:05;68.93;;;63.70;;
18170;SDS011;9210;48.358;10.902;2022-07-29T04:40:42;60.17;;;55.70;;
18170;SDS011;9210;48.358;10.902;2022-07-29T04:43:14;72.70;;;67.27;;
18170;SDS011;9210;48.358;10.902;2022-07-29T04:45:48;57.40;;;53.13;;
18170;SDS011;9210;48.358;10.902;2022-07-29T04:48:17;59.70;;;55.37;;
18170;SDS011;9210;48.358;10.902;2022-07-29T04:50:53;126.47;;;114.63;;
18170;SDS011;9210;48.358;10.902;2022-07-29T04:53:23;87.07;;;80.40;;
18170;SDS011;9210;48.358;10.902;2022-07-29T04:55:51;113.23;;;104.37;;
18170;SDS011;9210;48.358;10.902;2022-07-29T04:58:20;80.90;;;75.03;;
18170;SDS011;9210;48.358;10.902;2022-07-29T05:00:49;87.53;;;80.70;;
18170;SDS011;9210;48.358;10.902;2022-07-29T05:03:18;60.13;;;55.77;;
18170;SDS011;9210;48.358;10.902;2022-07-29T05:05:47;66.00;;;60.90;;
18170;SDS011;9210;48.358;10.902;2022-07-29T05:08:15;80.00;;;73.93;;
18170;SDS011;9210;48.358;10.902;2022-07-29T05:10:45;53.22;;;49.40;;
18170;SDS011;9210;48.358;10.902;2022-07-29T05:13:14;63.95;;;59.60;;
18170;SDS011;9210;48.358;10.902;2022-07-29T05:15:42;63.93;;;59.47;;
18170;SDS011;9210;48.358;10.902;2022-07-29T05:18:11;49.30;;;45.92;;
18170;SDS011;9210;48.358;10.902;2022-07-29T05:20:40;48.03;;;44.63;;
18170;SDS011;9210;48.358;10.902;2022-07-29T05:23:08;48.75;;;45.33;;
18170;SDS011;9210;48.358;10.902;2022-07-29T05:25:39;86.82;;;80.30;;
18170;SDS011;9210;48.358;10.902;2022-07-29T05:28:11;51.67;;;47.90;;
18170;SDS011;9210;48.358;10.902;2022-07-29T05:30:40;60.15;;;55.83;;
18170;SDS011;9210;48.358;10.902;2022-07-29T05:33:10;79.72;;;73.85;;
18170;SDS011;9210;48.358;10.902;2022-07-29T05:35:59;68.93;;;63.78;;
18170;SDS011;9210;48.358;10.902;2022-07-29T05:38:28;53.00;;;48.95;;
18170;SDS011;9210;48.358;10.902;2022-07-29T05:41:04;74.20;;;68.47;;
18170;SDS011;9210;48.358;10.902;2022-07-29T05:43:34;95.18;;;87.35;;
18170;SDS011;9210;48.358;10.902;2022-07-29T05:46:02;43.45;;;40.25;;
18170;SDS011;9210;48.358;10.902;2022-07-29T05:48:31;70.65;;;65.43;;
18170;SDS011;9210;48.358;10.902;2022-07-29T05:51:00;83.15;;;76.65;;
18170;SDS011;9210;48.358;10.902;2022-07-29T05:53:31;69.63;;;64.55;;
18170;SDS011;9210;48.358;10.902;2022-07-29T05:56:02;71.65;;;66.20;;
18170;SDS011;9210;48.358;10.902;2022-07-29T05:58:31;59.55;;;54.92;;
18170;SDS011;9210;48.358;10.902;2022-07-29T06:01:01;36.20;;;33.20;;
18170;SDS011;9210;48.358;10.902;2022-07-29T06:03:29;38.65;;;35.75;;
18170;SDS011;9210;48.358;10.902;2022-07-29T06:05:58;53.65;;;49.55;;
18170;SDS011;9210;48.358;10.902;2022-07-29T06:08:26;43.45;;;40.10;;
18170;SDS011;9210;48.358;10.902;2022-07-29T06:10:55;26.85;;;24.77;;
18170;SDS011;9210;48.358;10.902;2022-07-29T06:13:24;32.08;;;29.58;;
18170;SDS011;9210;48.358;10.902;2022-07-29T06:15:52;42.30;;;39.25;;
18170;SDS011;9210;48.358;10.902;2022-07-29T06:18:22;35.38;;;32.80;;
18170;SDS011;9210;48.358;10.902;2022-07-29T06:20:51;46.60;;;42.80;;
18170;SDS011;9210;48.358;10.902;2022-07-29T06:23:19;36.13;;;33.35;;
18170;SDS011;9210;48.358;10.902;2022-07-29T06:25:48;30.02;;;27.67;;
18170;SDS011;9210;48.358;10.902;2022-07-29T06:28:17;24.67;;;22.63;;
18170;SDS011;9210;48.358;10.902;2022-07-29T06:30:46;27.83;;;25.70;;
18170;SDS011;9210;48.358;10.902;2022-07-29T06:33:18;36.28;;;33.38;;
18170;SDS011;9210;48.358;10.902;2022-07-29T06:35:48;33.63;;;30.90;;
18170;SDS011;9210;48.358;10.902;2022-07-29T06:38:20;39.30;;;36.10;;
18170;SDS011;9210;48.358;10.902;2022-07-29T06:40:57;46.58;;;43.15;;
18170;SDS011;9210;48.358;10.902;2022-07-29T06:43:29;39.53;;;36.75;;
18170;SDS011;9210;48.358;10.902;2022-07-29T06:46:00;39.72;;;36.53;;
18170;SDS011;9210;48.358;10.902;2022-07-29T06:48:29;56.42;;;52.03;;
18170;SDS011;9210;48.358;10.902;2022-07-29T06:50:59;46.28;;;42.80;;
18170;SDS011;9210;48.358;10.902;2022-07-29T06:53:29;30.63;;;28.13;;
18170;SDS011;9210;48.358;10.902;2022-07-29T06:55:57;35.78;;;33.08;;
18170;SDS011;9210;48.358;10.902;2022-07-29T06:58:26;46.58;;;42.72;;
18170;SDS011;9210;48.358;10.902;2022-07-29T07:00:56;63.35;;;58.22;;
18170;SDS011;9210;48.358;10.902;2022-07-29T07:03:25;58.65;;;53.80;;
18170;SDS011;9210;48.358;10.902;2022-07-29T07:05:54;60.08;;;55.58;;
18170;SDS011;9210;48.358;10.902;2022-07-29T07:08:24;36.05;;;32.97;;
18170;SDS011;9210;48.358;10.902;2022-07-29T07:10:52;21.60;;;20.00;;
18170;SDS011;9210;48.358;10.902;2022-07-29T07:13:21;40.28;;;37.17;;
18170;SDS011;9210;48.358;10.902;2022-07-29T07:15:49;23.95;;;22.08;;
18170;SDS011;9210;48.358;10.902;2022-07-29T07:18:18;22.15;;;20.20;;
18170;SDS011;9210;48.358;10.902;2022-07-29T07:20:47;13.63;;;12.48;;
18170;SDS011;9210;48.358;10.902;2022-07-29T07:23:15;14.65;;;13.60;;
18170;SDS011;9210;48.358;10.902;2022-07-29T07:25:45;11.70;;;10.70;;
18170;SDS011;9210;48.358;10.902;2022-07-29T07:28:13;10.65;;;9.73;;
18170;SDS011;9210;48.358;10.902;2022-07-29T07:30:42;10.05;;;9.07;;
18170;SDS011;9210;48.358;10.902;2022-07-29T07:33:11;6.30;;;5.80;;
18170;SDS011;9210;48.358;10.902;2022-07-29T07:35:40;8.27;;;7.65;;
18170;SDS011;9210;48.358;10.902;2022-07-29T07:38:09;7.65;;;6.88;;
18170;SDS011;9210;48.358;10.902;2022-07-29T07:40:38;5.07;;;4.07;;
18170;SDS011;9210;48.358;10.902;2022-07-29T07:43:08;7.45;;;5.50;;
18170;SDS011;9210;48.358;10.902;2022-07-29T07:45:37;4.60;;;4.20;;
18170;SDS011;9210;48.358;10.902;2022-07-29T07:48:06;5.95;;;4.65;;
18170;SDS011;9210;48.358;10.902;2022-07-29T07:50:36;7.93;;;6.60;;
18170;SDS011;9210;48.358;10.902;2022-07-29T07:53:05;7.18;;;6.55;;
18170;SDS011;9210;48.358;10.902;2022-07-29T07:55:38;3.30;;;2.60;;
18170;SDS011;9210;48.358;10.902;2022-07-29T07:58:29;3.97;;;3.03;;
18170;SDS011;9210;48.358;10.902;2022-07-29T08:00:57;3.80;;;2.90;;
18170;SDS011;9210;48.358;10.902;2022-07-29T08:03:26;27.45;;;6.93;;
18170;SDS011;9210;48.358;10.902;2022-07-29T08:05:55;3.67;;;3.17;;
18170;SDS011;9210;48.358;10.902;2022-07-29T08:08:24;4.53;;;3.95;;
18170;SDS011;9210;48.358;10.902;2022-07-29T08:10:52;6.03;;;5.30;;
18170;SDS011;9210;48.358;10.902;2022-07-29T08:13:22;5.45;;;4.95;;
18170;SDS011;9210;48.358;10.902;2022-07-29T08:15:52;5.47;;;5.07;;
18170;SDS011;9210;48.358;10.902;2022-07-29T08:18:26;5.80;;;5.18;;
18170;SDS011;9210;48.358;10.902;2022-07-29T08:20:54;5.68;;;5.18;;
18170;SDS011;9210;48.358;10.902;2022-07-29T08:23:23;6.88;;;5.03;;
18170;SDS011;9210;48.358;10.902;2022-07-29T08:26:11;5.15;;;4.18;;
18170;SDS011;9210;48.358;10.902;2022-07-29T08:28:41;8.05;;;7.00;;
18170;SDS011;9210;48.358;10.902;2022-07-29T08:31:13;7.00;;;6.50;;
18170;SDS011;9210;48.358;10.902;2022-07-29T08:33:42;7.85;;;7.15;;
18170;SDS011;9210;48.358;10.902;2022-07-29T08:36:11;5.03;;;4.63;;
18170;SDS011;9210;48.358;10.902;2022-07-29T08:38:43;9.85;;;9.13;;
18170;SDS011;9210;48.358;10.902;2022-07-29T08:41:12;10.20;;;9.30;;
18170;SDS011;9210;48.358;10.902;2022-07-29T08:43:40;6.03;;;4.88;;
18170;SDS011;9210;48.358;10.902;2022-07-29T08:46:09;14.88;;;13.77;;
18170;SDS011;9210;48.358;10.902;2022-07-29T08:48:39;5.68;;;5.18;;
18170;SDS011;9210;48.358;10.902;2022-07-29T08:51:12;5.30;;;4.63;;
18170;SDS011;9210;48.358;10.902;2022-07-29T08:53:41;5.15;;;4.65;;
18170;SDS011;9210;48.358;10.902;2022-07-29T08:56:11;10.93;;;10.13;;
18170;SDS011;9210;48.358;10.902;2022-07-29T08:58:39;8.35;;;7.65;;
18170;SDS011;9210;48.358;10.902;2022-07-29T09:01:16;6.68;;;6.07;;
18170;SDS011;9210;48.358;10.902;2022-07-29T09:03:47;8.10;;;7.40;;
18170;SDS011;9210;48.358;10.902;2022-07-29T09:06:17;8.43;;;5.22;;
18170;SDS011;9210;48.358;10.902;2022-07-29T09:08:46;6.53;;;5.88;;
18170;SDS011;9210;48.358;10.902;2022-07-29T09:11:15;8.63;;;5.85;;
18170;SDS011;9210;48.358;10.902;2022-07-29T09:13:43;6.75;;;6.15;;
18170;SDS011;9210;48.358;10.902;2022-07-29T21:11:41;66.25;;;61.38;;
18170;SDS011;9210;48.358;10.902;2022-07-29T22:36:28;64.53;;;60.05;;
18170;SDS011;9210;48.358;10.902;2022-07-29T22:39:53;86.00;;;79.72;;
18170;SDS011;9210;48.358;10.902;2022-07-29T22:43:10;78.60;;;72.75;;
